Strona główna
METAR-TAF:

METAR-TAF

Lotnisko :

Eastern Slopes Regional Airport

Fryeburg, Maine, Stany Zjednoczone

Szerokość geograficzna: 43-59-21N, Długość geograficzna: 070-57-01W, wysokość: 137 m

Aktualna obserwacja pogody

Raport powstał 45 minut temu, godzina 14:54 UTC
Cisza
Temperatura 9°C
Wilgotność 31%
Ciśnienie 1021 hPa
Widzialność: 16.1 km
bezchmurnie

METAR: KIZG 281454Z AUTO 00000KT 10SM CLR 09/M07 A3015 RMK AO2 SLP216 T00941072 50002

czas: 11:39 (15:39 UTC)


TAF: brakujący

Obserwacja i prognoza pogody dla ponad 4000 lotnisk (raport METAR i TAF).

Dostępne stacje oznaczono żółtymi i czerwonymi punktami na mapie.

Najedź kursorem aby zobaczyć nazwę stacji.

Kliknij aby zobaczyć obserwacje i prognozy pogody.

Aby zmienić mapę: kliknij na zielony przycisk z czarnym krzyżykiem, aby powiększyć; na zielony przycisk z myślnikiem, aby pomniejszyć; na zielone strzałki, aby przejść do map sąsiednich.


METAR-TAF: